createdAt,value
2019-04-03T00:00:58.221Z,10.70
2019-04-03T00:03:28.092Z,10.70
2019-04-03T00:05:57.827Z,13.73
2019-04-03T00:08:27.590Z,14.10
2019-04-03T00:10:57.328Z,13.03
2019-04-03T00:13:27.184Z,12.40
2019-04-03T00:15:57.044Z,12.40
2019-04-03T00:18:26.804Z,10.63
2019-04-03T00:20:56.569Z,10.30
2019-04-03T00:23:26.441Z,10.60
2019-04-03T00:25:56.166Z,10.37
2019-04-03T00:28:26.037Z,10.83
2019-04-03T00:30:55.870Z,10.37
2019-04-03T00:33:25.730Z,9.87
2019-04-03T00:35:55.558Z,10.83
2019-04-03T00:38:25.296Z,11.50
2019-04-03T00:40:55.116Z,10.90
2019-04-03T00:43:25.332Z,11.07
2019-04-03T00:45:55.389Z,12.60
2019-04-03T00:48:25.913Z,12.23
2019-04-03T00:50:57.305Z,11.47
2019-04-03T00:53:28.218Z,12.83
2019-04-03T00:55:58.193Z,11.43
2019-04-03T00:58:35.558Z,12.13
2019-04-03T01:01:07.241Z,11.33
2019-04-03T01:03:37.104Z,11.30
2019-04-03T01:06:06.863Z,10.60
2019-04-03T01:08:36.622Z,10.53
2019-04-03T01:11:06.389Z,10.43
2019-04-03T01:13:36.269Z,10.73
2019-04-03T01:16:06.394Z,10.30
2019-04-03T01:18:37.626Z,10.70
2019-04-03T01:21:08.462Z,11.53
2019-04-03T01:23:38.324Z,11.03
2019-04-03T01:26:10.073Z,10.30
2019-04-03T01:28:41.353Z,11.50
2019-04-03T01:31:10.921Z,16.80
2019-04-03T01:33:40.707Z,22.00
2019-04-03T01:36:10.586Z,14.13
2019-04-03T01:38:40.613Z,11.40
2019-04-03T01:41:10.563Z,12.67
2019-04-03T01:43:40.375Z,11.57
2019-04-03T01:46:10.109Z,11.30
2019-04-03T01:48:39.864Z,11.33
2019-04-03T01:51:09.730Z,12.10
2019-04-03T01:53:39.508Z,12.27
2019-04-03T01:56:09.272Z,11.53
2019-04-03T01:58:39.162Z,11.40
2019-04-03T02:01:08.992Z,12.27
2019-04-03T02:03:41.193Z,11.97
2019-04-03T02:06:10.330Z,11.87
2019-04-03T02:08:40.065Z,12.40
2019-04-03T02:11:09.819Z,12.50
2019-04-03T02:13:39.540Z,11.73
2019-04-03T02:16:09.533Z,12.53
2019-04-03T02:18:39.263Z,11.97
2019-04-03T02:21:09.029Z,11.30
2019-04-03T02:23:38.856Z,12.20
2019-04-03T02:26:08.931Z,12.20
2019-04-03T02:28:38.763Z,11.53
2019-04-03T02:31:08.610Z,12.80
2019-04-03T02:33:38.569Z,13.67
2019-04-03T02:36:11.438Z,12.60
2019-04-03T02:38:39.897Z,13.70
2019-04-03T02:41:09.660Z,12.63
2019-04-03T02:43:39.392Z,12.83
2019-04-03T02:46:09.294Z,10.20
2019-04-03T02:48:39.192Z,12.63
2019-04-03T02:51:09.065Z,12.57
2019-04-03T02:53:38.815Z,12.00
2019-04-03T02:56:11.572Z,13.00
2019-04-03T02:58:40.271Z,20.90
2019-04-03T03:01:10.037Z,20.47
2019-04-03T03:03:39.767Z,16.70
2019-04-03T03:06:09.832Z,13.50
2019-04-03T03:08:41.653Z,14.87
2019-04-03T03:11:11.127Z,14.53
2019-04-03T03:13:41.090Z,13.17
2019-04-03T03:16:11.017Z,13.80
2019-04-03T03:18:41.080Z,13.33
2019-04-03T03:21:12.734Z,13.47
2019-04-03T03:23:42.317Z,12.63
2019-04-03T03:26:12.106Z,12.17
2019-04-03T03:28:45.882Z,13.30
2019-04-03T03:31:14.251Z,12.10
2019-04-03T03:33:44.403Z,11.60
2019-04-03T03:36:19.577Z,13.73
2019-04-03T03:38:45.741Z,14.07
2019-04-03T03:41:15.469Z,14.17
2019-04-03T03:43:45.418Z,13.37
2019-04-03T03:46:15.520Z,12.70
2019-04-03T03:48:45.808Z,12.97
2019-04-03T03:51:15.834Z,15.30
2019-04-03T03:53:46.124Z,13.77
2019-04-03T03:56:17.744Z,15.17
2019-04-03T03:58:48.900Z,15.07
2019-04-03T04:01:19.566Z,14.63
2019-04-03T04:03:49.378Z,14.57
2019-04-03T04:06:19.291Z,13.17
2019-04-03T04:08:49.210Z,13.40
2019-04-03T04:11:18.944Z,15.10
2019-04-03T04:13:49.759Z,26.43
2019-04-03T04:16:20.158Z,20.40
2019-04-03T04:18:50.212Z,30.00
2019-04-03T04:21:20.031Z,31.67
2019-04-03T04:23:49.930Z,33.73
2019-04-03T04:26:19.808Z,36.60
2019-04-03T04:28:49.852Z,28.50
2019-04-03T04:31:19.695Z,20.03
2019-04-03T04:33:49.616Z,17.17
2019-04-03T04:36:19.469Z,52.63
2019-04-03T04:38:49.243Z,223.97
2019-04-03T04:41:19.181Z,171.37
2019-04-03T04:43:49.067Z,72.73
2019-04-03T04:46:18.903Z,121.97
2019-04-03T04:48:50.967Z,75.00
2019-04-03T04:51:20.542Z,58.43
2019-04-03T04:53:50.353Z,31.43
2019-04-03T04:56:20.196Z,259.70
2019-04-03T04:58:49.960Z,58.47
2019-04-03T05:01:19.895Z,60.50
2019-04-03T05:03:49.742Z,73.10
2019-04-03T05:06:19.489Z,222.87
2019-04-03T05:08:49.365Z,124.60
2019-04-03T05:11:19.111Z,208.73
2019-04-03T05:13:49.060Z,642.80
2019-04-03T05:16:20.474Z,343.90
2019-04-03T05:18:50.459Z,454.00
2019-04-03T05:21:21.751Z,595.87
2019-04-03T05:23:51.878Z,224.20
2019-04-03T05:26:21.892Z,52.60
2019-04-03T05:28:55.885Z,23.13
2019-04-03T05:31:23.346Z,19.07
2019-04-03T05:33:53.179Z,17.10
2019-04-03T05:36:23.042Z,53.50
2019-04-03T05:38:53.864Z,60.97
2019-04-03T05:41:24.138Z,29.37
2019-04-03T05:43:53.902Z,15.50
2019-04-03T05:46:23.714Z,60.97
2019-04-03T05:48:53.499Z,105.27
2019-04-03T05:51:23.234Z,21.63
2019-04-03T05:53:54.160Z,25.80
2019-04-03T05:56:24.328Z,14.73
2019-04-03T05:58:56.930Z,17.27
2019-04-03T06:01:25.537Z,13.03
2019-04-03T06:03:55.398Z,13.30
2019-04-03T06:06:25.212Z,16.80
2019-04-03T06:08:56.499Z,19.40
2019-04-03T06:11:26.452Z,29.93
2019-04-03T06:13:56.360Z,64.93
2019-04-03T06:16:26.447Z,12.87
2019-04-03T06:18:56.999Z,12.70
2019-04-03T06:21:28.039Z,13.13
2019-04-03T06:23:57.895Z,13.97
2019-04-03T06:26:27.632Z,14.77
2019-04-03T06:28:57.565Z,12.73
2019-04-03T06:31:27.744Z,21.73
2019-04-03T06:33:57.690Z,12.07
2019-04-03T06:36:27.551Z,12.80
2019-04-03T06:38:57.730Z,14.00
2019-04-03T06:41:27.685Z,14.93
2019-04-03T06:43:57.599Z,14.73
2019-04-03T06:46:29.103Z,11.93
2019-04-03T06:48:59.140Z,11.57
2019-04-03T06:51:29.017Z,14.80
2019-04-03T06:53:59.893Z,15.97
2019-04-03T06:56:29.878Z,13.10
2019-04-03T06:58:59.680Z,17.90
2019-04-03T07:01:29.536Z,13.37
2019-04-03T07:03:59.899Z,12.50
2019-04-03T07:06:29.668Z,13.70
2019-04-03T07:08:59.569Z,13.10
2019-04-03T07:11:29.340Z,13.53
2019-04-03T07:13:59.140Z,12.97
2019-04-03T07:16:29.221Z,12.53
2019-04-03T07:18:59.082Z,14.83
2019-04-03T07:21:29.049Z,14.00
2019-04-03T07:24:00.680Z,14.60
2019-04-03T07:26:30.771Z,13.10
2019-04-03T07:29:00.519Z,14.63
2019-04-03T07:31:30.683Z,11.37
2019-04-03T07:34:03.204Z,13.10
2019-04-03T07:36:32.227Z,13.80
2019-04-03T07:39:02.065Z,12.77
2019-04-03T07:41:31.830Z,12.83
2019-04-03T07:44:01.733Z,14.23
2019-04-03T07:46:33.255Z,13.50
2019-04-03T07:49:03.045Z,13.73
2019-04-03T07:51:32.887Z,13.67
2019-04-03T07:54:04.763Z,14.17
2019-04-03T07:56:34.309Z,12.77
2019-04-03T07:59:04.295Z,13.60
2019-04-03T08:01:34.059Z,12.57
2019-04-03T08:04:03.818Z,12.70
2019-04-03T08:06:35.815Z,12.13
2019-04-03T08:09:09.671Z,13.47
2019-04-03T08:11:39.451Z,12.83
2019-04-03T08:14:09.955Z,14.77
2019-04-03T08:16:42.206Z,12.03
2019-04-03T08:19:11.362Z,13.50
2019-04-03T08:21:41.349Z,13.43
2019-04-03T08:24:11.965Z,14.40
2019-04-03T08:26:41.769Z,12.90
2019-04-03T08:29:11.571Z,11.37
2019-04-03T08:31:43.908Z,12.47
2019-04-03T08:34:16.675Z,12.50
2019-04-03T08:36:44.460Z,13.37
2019-04-03T08:39:16.068Z,13.33
2019-04-03T08:41:45.772Z,12.43
2019-04-03T08:44:16.099Z,11.70
2019-04-03T08:46:46.414Z,12.43
2019-04-03T08:49:16.293Z,13.20
2019-04-03T08:51:46.121Z,13.73
2019-04-03T08:54:16.101Z,13.63
2019-04-03T08:56:48.309Z,13.80
2019-04-03T08:59:17.630Z,13.20
2019-04-03T09:01:47.471Z,13.50
2019-04-03T09:04:17.958Z,11.93
2019-04-03T09:06:48.018Z,12.90
2019-04-03T09:09:17.936Z,12.93
2019-04-03T09:11:47.947Z,12.43
2019-04-03T09:14:19.462Z,12.77
2019-04-03T09:16:49.353Z,10.63
2019-04-03T09:19:19.135Z,11.37
2019-04-03T09:21:51.158Z,12.57
2019-04-03T09:24:20.630Z,12.90
2019-04-03T09:26:50.523Z,13.17
2019-04-03T09:29:20.295Z,13.00
2019-04-03T09:31:51.474Z,13.07
2019-04-03T09:34:21.867Z,15.10
2019-04-03T09:36:52.028Z,12.17
2019-04-03T09:39:21.841Z,12.20
2019-04-03T09:41:51.701Z,11.63
2019-04-03T09:44:24.506Z,12.70
2019-04-03T09:46:53.173Z,12.70
2019-04-03T09:49:23.271Z,12.03
2019-04-03T09:51:53.311Z,12.27
2019-04-03T09:54:24.011Z,12.87
2019-04-03T09:57:01.194Z,12.83
2019-04-03T09:59:25.616Z,13.30
2019-04-03T10:01:55.954Z,10.10
2019-04-03T10:04:26.787Z,12.90
2019-04-03T10:06:57.213Z,13.67
2019-04-03T10:09:27.648Z,12.17
2019-04-03T10:11:57.606Z,13.97
2019-04-03T10:14:28.943Z,12.50
2019-04-03T10:16:59.384Z,13.80
2019-04-03T10:19:29.284Z,11.97
2019-04-03T10:21:59.153Z,13.63
2019-04-03T10:24:31.070Z,13.17
2019-04-03T10:27:00.582Z,13.63
2019-04-03T10:29:30.484Z,13.50
2019-04-03T10:32:00.490Z,14.37
2019-04-03T10:34:30.421Z,14.03
2019-04-03T10:37:00.316Z,13.80
2019-04-03T10:39:30.315Z,14.70
2019-04-03T10:42:00.754Z,13.90
2019-04-03T10:44:31.171Z,11.53
2019-04-03T10:47:01.040Z,14.17
2019-04-03T10:49:32.475Z,13.43
2019-04-03T10:52:02.903Z,12.83
2019-04-03T10:54:32.835Z,13.03
2019-04-03T10:57:03.451Z,12.57
2019-04-03T10:59:33.820Z,14.00
2019-04-03T11:02:03.600Z,13.60
2019-04-03T11:04:33.505Z,13.80
2019-04-03T11:07:03.312Z,14.20
2019-04-03T11:09:33.448Z,13.00
2019-04-03T11:12:03.306Z,13.87
2019-04-03T11:14:33.173Z,13.40
2019-04-03T11:17:03.053Z,13.60
2019-04-03T11:19:33.201Z,13.50
2019-04-03T11:22:03.023Z,13.30
2019-04-03T11:24:32.881Z,13.93
2019-04-03T11:27:02.742Z,14.73
2019-04-03T11:29:33.635Z,17.43
2019-04-03T11:32:03.402Z,14.13
2019-04-03T11:34:33.253Z,14.40
2019-04-03T11:37:03.285Z,13.03
2019-04-03T11:39:33.174Z,14.53
2019-04-03T11:42:03.068Z,13.17
2019-04-03T11:44:32.927Z,13.57
2019-04-03T11:47:02.696Z,14.40
2019-04-03T11:49:32.565Z,17.10
2019-04-03T11:52:02.335Z,14.40
2019-04-03T11:54:32.208Z,14.87
2019-04-03T11:57:02.178Z,14.97
2019-04-03T11:59:32.068Z,14.00
2019-04-03T12:02:01.931Z,14.83
2019-04-03T12:04:31.698Z,14.00
2019-04-03T12:07:01.831Z,13.77
2019-04-03T12:09:32.465Z,13.57
2019-04-03T12:12:02.833Z,12.93
2019-04-03T12:14:32.792Z,15.67
2019-04-03T12:17:02.656Z,13.90
2019-04-03T12:19:32.661Z,13.07
2019-04-03T12:22:02.402Z,11.33
2019-04-03T12:24:32.602Z,12.30
2019-04-03T12:27:02.786Z,14.50
2019-04-03T12:29:32.657Z,12.27
2019-04-03T12:32:03.515Z,14.07
2019-04-03T12:34:36.733Z,13.67
2019-04-03T12:37:05.482Z,14.63
2019-04-03T12:39:35.300Z,12.07
2019-04-03T12:42:05.137Z,16.03
2019-04-03T12:44:35.035Z,8.60
2019-04-03T12:47:06.926Z,14.97
2019-04-03T12:49:36.346Z,12.73
2019-04-03T12:52:06.287Z,13.73
2019-04-03T12:54:38.063Z,11.97
2019-04-03T12:57:08.077Z,13.57
2019-04-03T12:59:39.816Z,14.50
2019-04-03T13:02:09.430Z,14.70
2019-04-03T13:04:39.325Z,14.43
2019-04-03T13:07:09.154Z,14.57
2019-04-03T13:09:39.109Z,13.87
2019-04-03T13:12:08.890Z,15.10
2019-04-03T13:14:38.657Z,13.50
2019-04-03T13:17:08.529Z,14.93
2019-04-03T13:19:38.643Z,14.50
2019-04-03T13:22:10.272Z,14.03
2019-04-03T13:24:40.459Z,12.77
2019-04-03T13:27:10.407Z,12.03
2019-04-03T13:29:40.907Z,15.13
2019-04-03T13:32:11.063Z,14.00
2019-04-03T13:34:42.675Z,13.40
2019-04-03T13:37:12.484Z,14.30
2019-04-03T13:39:42.377Z,13.27
2019-04-03T13:42:13.882Z,13.77
2019-04-03T13:44:43.987Z,13.87
2019-04-03T13:47:13.778Z,13.43
2019-04-03T13:49:43.677Z,13.53
2019-04-03T13:52:13.413Z,13.07
2019-04-03T13:54:45.289Z,15.40
2019-04-03T13:57:16.006Z,12.20
2019-04-03T13:59:46.117Z,14.27
2019-04-03T14:02:15.838Z,13.63
2019-04-03T14:04:48.347Z,12.97
2019-04-03T14:07:17.111Z,13.63
2019-04-03T14:09:50.652Z,13.80
2019-04-03T14:12:18.498Z,14.07
2019-04-03T14:14:48.663Z,13.60
2019-04-03T14:17:18.964Z,15.83
2019-04-03T14:19:51.512Z,13.23
2019-04-03T14:22:20.545Z,13.03
2019-04-03T14:24:52.539Z,13.33
2019-04-03T14:27:26.578Z,17.07
2019-04-03T14:29:53.501Z,13.33
2019-04-03T14:32:23.232Z,13.73
2019-04-03T14:35:04.132Z,13.90
2019-04-03T14:37:26.198Z,13.60
2019-04-03T14:39:56.176Z,14.67
2019-04-03T14:42:27.270Z,13.67
2019-04-03T14:44:57.288Z,12.60
2019-04-03T14:47:28.352Z,12.90
2019-04-03T14:49:58.678Z,14.30
2019-04-03T14:52:28.424Z,13.57
2019-04-03T14:55:04.836Z,14.10
2019-04-03T14:57:30.134Z,14.60
2019-04-03T15:00:02.040Z,13.00
2019-04-03T15:02:31.487Z,14.27
2019-04-03T15:05:01.248Z,13.10
2019-04-03T15:07:31.084Z,14.20
2019-04-03T15:10:01.219Z,15.43
2019-04-03T15:12:31.227Z,14.20
2019-04-03T15:15:01.457Z,12.57
2019-04-03T15:17:31.587Z,14.20
2019-04-03T15:20:01.641Z,12.50
2019-04-03T15:22:32.803Z,11.97
2019-04-03T15:25:03.104Z,10.30
2019-04-03T15:27:32.935Z,13.57
2019-04-03T15:30:02.798Z,12.23
2019-04-03T15:32:33.127Z,14.47
2019-04-03T15:35:03.144Z,13.90
2019-04-03T15:37:32.978Z,14.10
2019-04-03T15:40:03.454Z,11.53
2019-04-03T15:42:33.525Z,13.10
2019-04-03T15:45:03.303Z,12.97
2019-04-03T15:47:38.567Z,17.07
2019-04-03T15:50:06.387Z,27.33
2019-04-03T15:52:36.141Z,13.90
2019-04-03T15:55:08.519Z,14.53
2019-04-03T15:57:40.008Z,12.73
2019-04-03T16:00:14.846Z,14.10
2019-04-03T16:02:46.400Z,14.17
2019-04-03T16:05:16.649Z,15.07
2019-04-03T16:07:46.465Z,14.93
2019-04-03T16:10:16.299Z,11.30
2019-04-03T16:12:46.606Z,15.83
2019-04-03T16:15:16.526Z,13.57
2019-04-03T16:17:46.468Z,14.90
2019-04-03T16:20:17.620Z,13.60
2019-04-03T16:22:47.612Z,12.13
2019-04-03T16:25:17.997Z,12.93
2019-04-03T16:27:48.792Z,13.73
2019-04-03T16:30:19.615Z,54.33
2019-04-03T16:32:49.683Z,19.57
2019-04-03T16:35:19.697Z,40.10
2019-04-03T16:37:50.561Z,14.17
2019-04-03T16:40:21.360Z,29.53
2019-04-03T16:42:52.974Z,15.80
2019-04-03T16:45:23.013Z,15.13
2019-04-03T16:47:52.863Z,12.27
2019-04-03T16:50:26.155Z,26.93
2019-04-03T16:52:54.257Z,34.57
2019-04-03T16:55:24.390Z,28.20
2019-04-03T16:57:55.297Z,75.97
2019-04-03T17:00:25.394Z,25.30
2019-04-03T17:02:56.149Z,22.17
2019-04-03T17:05:26.850Z,15.07
2019-04-03T17:07:57.569Z,14.57
2019-04-03T17:10:27.579Z,13.50
2019-04-03T17:12:57.432Z,16.97
2019-04-03T17:15:27.311Z,15.50
2019-04-03T17:17:57.175Z,20.00
2019-04-03T17:20:27.306Z,23.43
2019-04-03T17:22:57.179Z,18.37
2019-04-03T17:25:30.117Z,19.63
2019-04-03T17:27:59.763Z,24.30
2019-04-03T17:30:29.992Z,18.43
2019-04-03T17:33:02.046Z,13.80
2019-04-03T17:35:31.381Z,16.83
2019-04-03T17:38:01.469Z,47.57
2019-04-03T17:40:31.475Z,38.50
2019-04-03T17:43:01.301Z,45.37
2019-04-03T17:45:31.198Z,21.77
2019-04-03T17:48:01.679Z,16.93
2019-04-03T17:50:31.825Z,38.63
2019-04-03T17:53:01.849Z,15.20
2019-04-03T17:55:31.750Z,26.47
2019-04-03T18:14:08.966Z,17.47
2019-04-03T18:16:41.393Z,19.97
2019-04-03T18:45:28.077Z,16.10
2019-04-03T18:58:17.981Z,15.27
2019-04-03T18:59:32.031Z,13.47
2019-04-03T19:14:01.614Z,13.73
2019-04-03T19:33:13.961Z,14.77
2019-04-03T19:36:06.868Z,14.60
2019-04-03T19:39:10.514Z,14.50
2019-04-03T19:41:47.289Z,13.33
2019-04-03T19:44:37.061Z,15.00
2019-04-03T19:47:12.895Z,14.20
2019-04-03T19:49:48.173Z,12.43
2019-04-03T19:52:21.137Z,14.67
2019-04-03T19:55:01.629Z,16.83
2019-04-03T20:01:07.665Z,152.73
2019-04-03T20:03:44.088Z,27.43
2019-04-03T20:06:22.485Z,52.27
2019-04-03T20:08:51.910Z,99.73
2019-04-03T20:12:03.027Z,63.83
2019-04-03T20:14:29.070Z,82.77
2019-04-03T20:17:05.802Z,37.27
2019-04-03T20:19:35.623Z,64.57
2019-04-03T20:22:07.764Z,27.00
2019-04-03T20:24:43.483Z,27.07
2019-04-03T20:27:17.246Z,16.53
2019-04-03T20:29:48.659Z,20.03
2019-04-03T20:32:20.868Z,15.67
2019-04-03T20:36:24.778Z,15.70
2019-04-03T20:37:56.795Z,15.63
2019-04-03T20:41:25.200Z,14.97
2019-04-03T20:44:38.684Z,17.03
2019-04-03T20:50:18.042Z,14.33
2019-04-03T20:52:45.771Z,14.73
2019-04-03T20:55:50.852Z,13.03
2019-04-03T20:58:55.783Z,16.03
2019-04-03T21:01:35.269Z,15.00
2019-04-03T21:04:36.513Z,15.93
2019-04-03T21:07:18.681Z,14.17
2019-04-03T21:25:26.863Z,17.27
2019-04-03T21:34:26.118Z,18.10
2019-04-03T21:40:17.591Z,15.63
2019-04-03T21:43:02.600Z,16.67
2019-04-03T21:45:32.434Z,17.07
2019-04-03T21:48:02.985Z,17.87
2019-04-03T21:50:32.771Z,17.70
2019-04-03T21:53:02.533Z,16.47
2019-04-03T21:55:34.639Z,16.27
2019-04-03T21:58:03.946Z,15.23
2019-04-03T22:00:58.644Z,15.13
2019-04-03T22:03:28.672Z,16.70
2019-04-03T22:05:58.411Z,17.30
2019-04-03T22:08:29.091Z,16.97
2019-04-03T22:10:59.686Z,17.40
2019-04-03T22:13:29.866Z,16.23
2019-04-03T22:15:59.711Z,15.33
2019-04-03T22:18:29.551Z,16.33
2019-04-03T22:21:01.569Z,14.90
2019-04-03T22:23:30.861Z,15.83
2019-04-03T22:26:00.683Z,14.20
2019-04-03T22:28:30.448Z,16.90
2019-04-03T22:31:00.282Z,15.50
2019-04-03T22:33:30.150Z,17.33
2019-04-03T22:36:01.316Z,15.20
2019-04-03T22:38:31.736Z,16.50
2019-04-03T22:41:01.576Z,16.60
2019-04-03T22:43:31.547Z,15.43
2019-04-03T22:46:01.473Z,16.40
2019-04-03T22:48:31.543Z,16.20
2019-04-03T22:51:01.400Z,15.23
2019-04-03T22:53:31.363Z,15.80
2019-04-03T22:56:01.187Z,16.60
2019-04-03T22:58:31.271Z,14.70
2019-04-03T23:01:01.107Z,17.43
2019-04-03T23:03:31.997Z,16.17
2019-04-03T23:06:02.706Z,15.07
2019-04-03T23:08:32.798Z,17.80
2019-04-03T23:11:02.737Z,15.73
2019-04-03T23:13:33.823Z,16.00
2019-04-03T23:16:04.244Z,14.80
2019-04-03T23:18:34.201Z,16.20
2019-04-03T23:21:04.067Z,14.83
2019-04-03T23:23:34.166Z,16.80
2019-04-03T23:26:04.243Z,14.90
2019-04-03T23:28:34.640Z,16.37
2019-04-03T23:31:04.565Z,16.43
2019-04-03T23:33:34.449Z,15.93
2019-04-03T23:36:04.314Z,16.90
2019-04-03T23:38:34.202Z,16.90
2019-04-03T23:41:04.198Z,17.83
2019-04-03T23:43:35.671Z,16.70
2019-04-03T23:46:05.532Z,16.73
2019-04-03T23:48:35.266Z,16.50
2019-04-03T23:51:05.135Z,22.30
2019-04-03T23:53:34.973Z,19.83
2019-04-03T23:56:07.128Z,17.93
2019-04-03T23:58:36.457Z,18.80
